createdAt,value
2023-02-16T00:00:45.507Z,81.56
2023-02-16T00:01:45.546Z,81.67
2023-02-16T00:02:45.507Z,81.77
2023-02-16T00:03:45.536Z,81.87
2023-02-16T00:04:45.467Z,81.87
2023-02-16T00:05:45.457Z,81.98
2023-02-16T00:06:45.552Z,82.18
2023-02-16T00:07:45.467Z,82.29
2023-02-16T00:08:45.416Z,82.50
2023-02-16T00:09:45.407Z,82.50
2023-02-16T00:10:45.409Z,82.50
2023-02-16T00:11:45.383Z,82.50
2023-02-16T00:12:45.376Z,82.39
2023-02-16T00:13:45.408Z,82.32
2023-02-16T00:14:45.426Z,82.32
2023-02-16T00:15:45.416Z,82.22
2023-02-16T00:16:45.335Z,82.22
2023-02-16T00:17:45.317Z,82.32
2023-02-16T00:18:45.322Z,82.53
2023-02-16T00:19:45.345Z,82.64
2023-02-16T00:20:45.296Z,82.78
2023-02-16T00:21:45.284Z,82.88
2023-02-16T00:22:45.266Z,82.98
2023-02-16T00:23:45.258Z,83.09
2023-02-16T00:24:45.310Z,83.19
2023-02-16T00:25:45.245Z,83.61
2023-02-16T00:26:45.232Z,83.91
2023-02-16T00:27:45.216Z,83.91
2023-02-16T00:28:45.219Z,83.91
2023-02-16T00:29:46.012Z,84.01
2023-02-16T00:30:45.211Z,84.43
2023-02-16T00:31:45.297Z,84.95
2023-02-16T00:32:45.168Z,85.05
2023-02-16T00:33:45.158Z,84.95
2023-02-16T00:34:52.537Z,84.84
2023-02-16T00:35:45.138Z,84.84
2023-02-16T00:36:45.128Z,84.84
2023-02-16T00:37:45.116Z,84.74
2023-02-16T00:38:45.108Z,84.53
2023-02-16T00:39:45.168Z,84.43
2023-02-16T00:40:45.086Z,84.22
2023-02-16T00:41:45.166Z,84.12
2023-02-16T00:42:45.071Z,84.16
2023-02-16T00:43:45.051Z,84.16
2023-02-16T00:44:45.091Z,84.16
2023-02-16T00:45:45.041Z,84.16
2023-02-16T00:46:45.043Z,84.16
2023-02-16T00:47:45.008Z,84.16
2023-02-16T00:48:45.415Z,84.37
2023-02-16T00:49:44.989Z,84.58
2023-02-16T00:50:44.999Z,84.58
2023-02-16T00:51:44.958Z,84.88
2023-02-16T00:52:44.958Z,84.88
2023-02-16T00:53:44.940Z,85.30
2023-02-16T00:54:44.939Z,85.40
2023-02-16T00:55:44.933Z,85.71
2023-02-16T00:56:44.953Z,86.02
2023-02-16T00:57:44.899Z,86.13
2023-02-16T00:58:44.889Z,86.23
2023-02-16T00:59:44.928Z,86.13
2023-02-16T01:00:44.885Z,86.02
2023-02-16T01:01:44.894Z,86.02
2023-02-16T01:02:44.898Z,86.02
2023-02-16T01:03:44.838Z,86.02
2023-02-16T01:04:44.919Z,86.02
2023-02-16T01:05:44.826Z,86.02
2023-02-16T01:06:44.814Z,85.82
2023-02-16T01:07:44.792Z,85.82
2023-02-16T01:08:44.783Z,85.61
2023-02-16T01:09:44.783Z,85.50
2023-02-16T01:10:44.806Z,85.40
2023-02-16T01:11:44.746Z,85.19
2023-02-16T01:12:44.737Z,85.19
2023-02-16T01:13:44.745Z,85.19
2023-02-16T01:14:44.720Z,85.09
2023-02-16T01:15:44.766Z,84.99
2023-02-16T01:16:44.693Z,84.99
2023-02-16T01:17:44.685Z,84.88
2023-02-16T01:18:44.692Z,84.78
2023-02-16T01:19:44.764Z,84.68
2023-02-16T01:20:44.659Z,84.68
2023-02-16T01:21:44.645Z,84.68
2023-02-16T01:22:44.634Z,84.68
2023-02-16T01:23:44.630Z,84.58
2023-02-16T01:24:44.645Z,84.58
2023-02-16T01:25:44.612Z,84.47
2023-02-16T01:26:44.594Z,84.61
2023-02-16T01:27:44.583Z,84.61
2023-02-16T01:28:44.614Z,84.61
2023-02-16T01:29:44.561Z,84.51
2023-02-16T01:30:44.590Z,84.61
2023-02-16T01:31:44.622Z,84.72
2023-02-16T01:32:44.559Z,84.72
2023-02-16T01:33:44.549Z,84.82
2023-02-16T01:34:44.516Z,84.82
2023-02-16T01:35:44.503Z,84.92
2023-02-16T01:36:44.482Z,84.92
2023-02-16T01:37:44.482Z,85.03
2023-02-16T01:38:44.491Z,84.92
2023-02-16T01:39:44.468Z,84.92
2023-02-16T01:40:44.440Z,84.92
2023-02-16T01:41:44.560Z,84.92
2023-02-16T01:42:44.417Z,84.86
2023-02-16T01:43:44.425Z,84.86
2023-02-16T01:44:44.404Z,84.86
2023-02-16T01:45:44.403Z,84.86
2023-02-16T01:46:44.769Z,84.86
2023-02-16T01:47:44.400Z,84.96
2023-02-16T01:48:44.357Z,85.06
2023-02-16T01:49:44.350Z,85.17
2023-02-16T01:50:44.387Z,85.27
2023-02-16T01:51:44.370Z,85.38
2023-02-16T01:52:44.320Z,85.48
2023-02-16T01:53:44.309Z,85.48
2023-02-16T01:54:44.302Z,85.48
2023-02-16T01:55:44.305Z,85.48
2023-02-16T01:56:44.302Z,85.48
2023-02-16T01:57:44.269Z,85.63
2023-02-16T01:58:44.279Z,85.58
2023-02-16T01:59:44.250Z,85.69
2023-02-16T02:00:44.230Z,85.69
2023-02-16T02:01:44.314Z,85.69
2023-02-16T02:02:44.252Z,85.73
2023-02-16T02:03:44.220Z,85.83
2023-02-16T02:04:44.194Z,86.00
2023-02-16T02:05:44.248Z,86.00
2023-02-16T02:06:44.161Z,86.00
2023-02-16T02:07:44.179Z,86.00
2023-02-16T02:08:44.168Z,86.04
2023-02-16T02:09:44.139Z,86.04
2023-02-16T02:10:44.119Z,85.94
2023-02-16T02:11:44.109Z,85.94
2023-02-16T02:12:44.193Z,85.83
2023-02-16T02:13:44.098Z,85.63
2023-02-16T02:14:44.238Z,85.52
2023-02-16T02:15:44.123Z,85.42
2023-02-16T02:16:44.068Z,85.42
2023-02-16T02:17:44.056Z,85.52
2023-02-16T02:18:44.046Z,85.52
2023-02-16T02:19:44.037Z,85.52
2023-02-16T02:20:44.056Z,85.52
2023-02-16T02:21:44.013Z,85.52
2023-02-16T02:22:43.996Z,85.52
2023-02-16T02:23:44.015Z,85.42
2023-02-16T02:24:43.965Z,85.31
2023-02-16T02:25:43.974Z,85.21
2023-02-16T02:26:43.981Z,85.11
2023-02-16T02:27:44.005Z,85.35
2023-02-16T02:28:43.943Z,85.46
2023-02-16T02:29:43.924Z,85.46
2023-02-16T02:30:43.952Z,85.46
2023-02-16T02:31:44.011Z,85.46
2023-02-16T02:32:43.959Z,85.56
2023-02-16T02:33:43.881Z,85.56
2023-02-16T02:34:43.865Z,85.66
2023-02-16T02:35:43.863Z,85.66
2023-02-16T02:36:43.844Z,85.66
2023-02-16T02:37:43.833Z,85.77
2023-02-16T02:38:43.854Z,85.77
2023-02-16T02:39:43.844Z,85.66
2023-02-16T02:40:43.794Z,85.66
2023-02-16T02:41:43.934Z,85.56
2023-02-16T02:42:43.792Z,85.46
2023-02-16T02:43:43.803Z,85.46
2023-02-16T02:44:43.768Z,85.46
2023-02-16T02:45:43.764Z,85.56
2023-02-16T02:46:43.787Z,85.56
2023-02-16T02:47:43.746Z,85.66
2023-02-16T02:48:43.781Z,85.77
2023-02-16T02:49:43.712Z,85.77
2023-02-16T02:50:43.733Z,85.77
2023-02-16T02:51:43.692Z,85.87
2023-02-16T02:52:43.672Z,85.91
2023-02-16T02:53:43.701Z,85.91
2023-02-16T02:54:43.717Z,85.91
2023-02-16T02:55:43.668Z,85.91
2023-02-16T02:56:43.644Z,85.81
2023-02-16T02:57:43.629Z,85.81
2023-02-16T02:58:43.613Z,85.81
2023-02-16T02:59:43.640Z,85.91
2023-02-16T03:00:43.641Z,86.02
2023-02-16T03:01:43.674Z,86.12
2023-02-16T03:02:43.573Z,86.22
2023-02-16T03:03:43.572Z,86.33
2023-02-16T03:04:43.556Z,86.43
2023-02-16T03:05:43.556Z,86.54
2023-02-16T03:06:43.532Z,86.64
2023-02-16T03:07:43.553Z,86.74
2023-02-16T03:08:43.505Z,86.74
2023-02-16T03:09:44.178Z,86.85
2023-02-16T03:10:43.491Z,86.85
2023-02-16T03:11:43.482Z,86.85
2023-02-16T03:12:43.471Z,86.85
2023-02-16T03:13:43.499Z,86.85
2023-02-16T03:14:43.446Z,86.85
2023-02-16T03:15:43.450Z,86.85
2023-02-16T03:16:43.516Z,86.95
2023-02-16T03:17:43.411Z,86.95
2023-02-16T03:18:43.417Z,86.95
2023-02-16T03:19:43.400Z,86.95
2023-02-16T03:20:43.416Z,86.85
2023-02-16T03:21:43.381Z,86.64
2023-02-16T03:22:43.364Z,86.54
2023-02-16T03:23:43.357Z,86.43
2023-02-16T03:24:43.351Z,86.43
2023-02-16T03:25:43.386Z,86.43
2023-02-16T03:26:43.381Z,86.43
2023-02-16T03:27:43.305Z,86.43
2023-02-16T03:28:43.311Z,86.43
2023-02-16T03:29:43.284Z,86.43
2023-02-16T03:30:43.379Z,86.43
2023-02-16T03:31:43.407Z,86.43
2023-02-16T03:32:43.266Z,86.43
2023-02-16T03:33:43.259Z,86.43
2023-02-16T03:34:43.233Z,86.43
2023-02-16T03:35:43.236Z,86.43
2023-02-16T03:36:43.294Z,86.43
2023-02-16T03:37:43.213Z,86.54
2023-02-16T03:38:43.194Z,86.64
2023-02-16T03:39:43.184Z,86.74
2023-02-16T03:40:43.173Z,86.85
2023-02-16T03:41:43.165Z,86.85
2023-02-16T03:42:43.184Z,86.85
2023-02-16T03:43:43.134Z,86.95
2023-02-16T03:44:43.114Z,86.95
2023-02-16T03:45:43.126Z,86.85
2023-02-16T03:46:43.111Z,86.85
2023-02-16T03:47:43.133Z,86.85
2023-02-16T03:48:43.091Z,86.85
2023-02-16T03:49:43.106Z,86.85
2023-02-16T03:50:43.078Z,86.74
2023-02-16T03:51:43.070Z,86.74
2023-02-16T03:52:43.105Z,86.74
2023-02-16T03:53:43.041Z,86.74
2023-02-16T03:54:43.030Z,86.74
2023-02-16T03:55:43.037Z,86.74
2023-02-16T03:56:43.007Z,86.64
2023-02-16T03:57:43.052Z,86.64
2023-02-16T03:58:42.988Z,86.85
2023-02-16T03:59:43.050Z,86.85
2023-02-16T04:00:42.955Z,86.95
2023-02-16T04:01:42.981Z,86.91
2023-02-16T04:02:42.994Z,87.01
2023-02-16T04:03:42.947Z,87.01
2023-02-16T04:04:42.961Z,87.84
2023-02-16T04:05:42.926Z,88.53
2023-02-16T04:06:42.923Z,88.73
2023-02-16T04:07:42.893Z,88.73
2023-02-16T04:08:42.914Z,88.53
2023-02-16T04:09:43.008Z,88.21
2023-02-16T04:10:42.923Z,87.80
2023-02-16T04:11:42.894Z,87.59
2023-02-16T04:12:42.833Z,87.28
2023-02-16T04:13:42.833Z,87.07
2023-02-16T04:14:43.887Z,86.87
2023-02-16T04:15:42.817Z,86.66
2023-02-16T04:16:42.858Z,86.55
2023-02-16T04:17:42.845Z,86.55
2023-02-16T04:18:42.764Z,86.45
2023-02-16T04:19:42.798Z,86.35
2023-02-16T04:20:42.795Z,86.15
2023-02-16T04:21:42.748Z,85.94
2023-02-16T04:22:42.740Z,85.73
2023-02-16T04:23:42.722Z,85.63
2023-02-16T04:24:42.741Z,85.52
2023-02-16T04:25:42.756Z,85.52
2023-02-16T04:26:42.723Z,85.31
2023-02-16T04:27:42.682Z,85.21
2023-02-16T04:28:42.702Z,85.11
2023-02-16T04:29:42.685Z,85.00
2023-02-16T04:30:42.797Z,85.00
2023-02-16T04:31:42.724Z,84.90
2023-02-16T04:32:42.620Z,84.94
2023-02-16T04:33:42.645Z,84.83
2023-02-16T04:34:42.711Z,84.83
2023-02-16T04:35:42.605Z,84.83
2023-02-16T04:36:42.629Z,84.73
2023-02-16T04:37:42.593Z,84.73
2023-02-16T04:38:42.578Z,84.73
2023-02-16T04:39:42.608Z,84.83
2023-02-16T04:40:42.539Z,84.83
2023-02-16T04:41:42.576Z,84.98
2023-02-16T04:42:42.556Z,85.08
2023-02-16T04:43:42.516Z,85.08
2023-02-16T04:44:42.583Z,85.29
2023-02-16T04:45:42.510Z,85.39
2023-02-16T04:46:42.475Z,85.50
2023-02-16T04:47:42.471Z,85.60
2023-02-16T04:48:42.447Z,85.60
2023-02-16T04:49:42.482Z,85.71
2023-02-16T04:50:42.470Z,85.71
2023-02-16T04:51:42.422Z,85.60
2023-02-16T04:52:42.445Z,85.60
2023-02-16T04:53:42.403Z,85.60
2023-02-16T04:54:42.487Z,85.60
2023-02-16T04:55:42.424Z,85.60
2023-02-16T04:56:42.366Z,85.71
2023-02-16T04:57:42.361Z,85.71
2023-02-16T04:58:42.374Z,85.91
2023-02-16T04:59:42.340Z,86.12
2023-02-16T05:00:42.351Z,86.22
2023-02-16T05:01:42.360Z,86.33
2023-02-16T05:02:42.322Z,86.33
2023-02-16T05:03:42.325Z,86.33
2023-02-16T05:04:42.436Z,86.33
2023-02-16T05:05:42.275Z,86.33
2023-02-16T05:06:42.257Z,86.33
2023-02-16T05:07:42.273Z,86.33
2023-02-16T05:08:42.233Z,86.22
2023-02-16T05:09:42.262Z,86.22
2023-02-16T05:10:42.272Z,86.12
2023-02-16T05:11:42.214Z,86.12
2023-02-16T05:12:42.192Z,86.05
2023-02-16T05:13:42.733Z,86.05
2023-02-16T05:14:42.176Z,86.16
2023-02-16T05:15:42.220Z,86.26
2023-02-16T05:16:42.155Z,86.47
2023-02-16T05:17:42.151Z,86.68
2023-02-16T05:18:42.201Z,86.68
2023-02-16T05:19:42.165Z,86.78
2023-02-16T05:20:42.123Z,86.78
2023-02-16T05:21:42.122Z,86.88
2023-02-16T05:22:42.099Z,86.88
2023-02-16T05:23:42.082Z,86.88
2023-02-16T05:24:42.109Z,86.88
2023-02-16T05:25:42.068Z,86.88
2023-02-16T05:26:42.047Z,86.99
2023-02-16T05:27:42.039Z,86.99
2023-02-16T05:28:42.029Z,86.99
2023-02-16T05:29:42.018Z,86.99
2023-02-16T05:30:42.101Z,87.09
2023-02-16T05:31:42.185Z,87.26
2023-02-16T05:32:41.990Z,87.37
2023-02-16T05:33:42.012Z,87.47
2023-02-16T05:34:41.968Z,87.68
2023-02-16T05:35:41.990Z,87.68
2023-02-16T05:36:41.949Z,87.57
2023-02-16T05:37:42.829Z,87.57
2023-02-16T05:38:44.108Z,87.47
2023-02-16T05:39:42.007Z,87.37
2023-02-16T05:40:41.973Z,87.26
2023-02-16T05:41:49.411Z,87.26
2023-02-16T05:42:41.896Z,87.47
2023-02-16T05:43:41.886Z,87.47
2023-02-16T05:44:41.867Z,87.57
2023-02-16T05:45:41.853Z,87.68
2023-02-16T05:46:41.873Z,87.57
2023-02-16T05:47:41.824Z,87.57
2023-02-16T05:48:41.835Z,87.78
2023-02-16T05:49:41.827Z,87.78
2023-02-16T05:50:43.522Z,87.88
2023-02-16T05:51:41.826Z,87.78
2023-02-16T05:52:41.793Z,87.78
2023-02-16T05:53:41.763Z,87.68
2023-02-16T05:54:41.755Z,87.68
2023-02-16T05:55:41.742Z,87.68
2023-02-16T05:56:41.732Z,87.53
2023-02-16T05:57:41.760Z,87.53
2023-02-16T05:58:41.712Z,87.53
2023-02-16T05:59:41.757Z,87.53
2023-02-16T06:00:41.698Z,87.43
2023-02-16T06:01:41.734Z,87.43
2023-02-16T06:02:41.737Z,87.32
2023-02-16T06:03:41.725Z,87.22
2023-02-16T06:04:41.733Z,87.22
2023-02-16T06:05:41.644Z,87.22
2023-02-16T06:06:41.640Z,87.12
2023-02-16T06:07:41.617Z,87.12
2023-02-16T06:08:41.624Z,87.01
2023-02-16T06:09:41.616Z,86.91
2023-02-16T06:10:41.594Z,86.95
2023-02-16T06:11:41.634Z,86.85
2023-02-16T06:12:43.888Z,86.85
2023-02-16T06:13:41.553Z,86.95
2023-02-16T06:14:41.554Z,86.95
2023-02-16T06:15:41.547Z,87.05
2023-02-16T06:16:41.646Z,87.05
2023-02-16T06:17:41.583Z,87.05
2023-02-16T06:18:43.936Z,87.01
2023-02-16T06:19:41.501Z,87.12
2023-02-16T06:20:41.488Z,87.16
2023-02-16T06:21:41.561Z,87.22
2023-02-16T06:22:41.492Z,87.32
2023-02-16T06:23:41.458Z,87.53
2023-02-16T06:24:41.483Z,87.63
2023-02-16T06:25:41.464Z,87.84
2023-02-16T06:26:41.429Z,87.95
2023-02-16T06:27:41.404Z,87.95
2023-02-16T06:28:41.411Z,87.95
2023-02-16T06:29:41.422Z,88.05
2023-02-16T06:30:41.382Z,87.95
2023-02-16T06:31:41.467Z,87.95
2023-02-16T06:32:41.357Z,87.95
2023-02-16T06:33:41.342Z,87.95
2023-02-16T06:34:41.443Z,87.84
2023-02-16T06:35:41.332Z,87.80
2023-02-16T06:36:42.607Z,87.80
2023-02-16T06:37:41.318Z,87.70
2023-02-16T06:38:41.298Z,87.70
2023-02-16T06:39:41.331Z,87.70
2023-02-16T06:40:41.309Z,87.70
2023-02-16T06:41:41.310Z,87.70
2023-02-16T06:42:41.334Z,87.80
2023-02-16T06:43:41.237Z,87.80
2023-02-16T06:44:41.229Z,87.70
2023-02-16T06:45:41.244Z,87.70
2023-02-16T06:46:41.283Z,87.70
2023-02-16T06:47:42.915Z,87.80
2023-02-16T06:48:41.188Z,87.90
2023-02-16T06:49:41.185Z,87.87
2023-02-16T06:50:41.168Z,87.87
2023-02-16T06:51:41.369Z,87.97
2023-02-16T06:52:41.156Z,87.97
2023-02-16T06:53:41.164Z,87.87
2023-02-16T06:54:41.139Z,87.87
2023-02-16T06:55:41.125Z,88.13
2023-02-16T06:56:41.177Z,88.13
2023-02-16T06:57:41.116Z,88.13
2023-02-16T06:58:41.084Z,88.03
2023-02-16T06:59:41.088Z,87.93
2023-02-16T07:00:41.139Z,87.82
2023-02-16T07:01:42.536Z,87.93
2023-02-16T07:02:41.044Z,87.93
2023-02-16T07:03:41.086Z,87.88
2023-02-16T07:04:41.024Z,87.88
2023-02-16T07:05:41.012Z,87.88
2023-02-16T07:06:46.203Z,87.78
2023-02-16T07:07:40.985Z,87.68
2023-02-16T07:08:40.986Z,87.37
2023-02-16T07:09:40.966Z,86.96
2023-02-16T07:10:49.812Z,86.65
2023-02-16T07:11:41.965Z,86.23
2023-02-16T07:12:40.954Z,85.88
2023-02-16T07:13:40.917Z,85.57
2023-02-16T07:14:44.145Z,85.26
2023-02-16T07:15:40.933Z,85.05
2023-02-16T07:16:40.957Z,84.84
2023-02-16T07:17:42.575Z,84.64
2023-02-16T07:18:40.871Z,84.64
2023-02-16T07:19:40.845Z,84.50
2023-02-16T07:20:40.861Z,84.70
2023-02-16T07:21:40.883Z,84.81
2023-02-16T07:22:40.832Z,84.50
2023-02-16T07:23:40.817Z,84.39
2023-02-16T07:24:40.803Z,84.29
2023-02-16T07:25:40.791Z,84.08
2023-02-16T07:26:40.796Z,84.08
2023-02-16T07:27:40.812Z,84.05
2023-02-16T07:28:40.786Z,83.94
2023-02-16T07:29:40.760Z,83.73
2023-02-16T07:30:40.744Z,83.42
2023-02-16T07:31:40.835Z,83.22
2023-02-16T07:32:40.823Z,83.22
2023-02-16T07:33:41.057Z,83.01
2023-02-16T07:34:40.701Z,82.90
2023-02-16T07:35:40.712Z,82.80
2023-02-16T07:36:40.720Z,82.70
2023-02-16T07:37:40.658Z,82.70
2023-02-16T07:38:40.650Z,82.50
2023-02-16T07:39:40.639Z,82.25
2023-02-16T07:40:40.770Z,82.15
2023-02-16T07:41:40.645Z,82.04
2023-02-16T07:42:40.611Z,81.94
2023-02-16T07:43:40.594Z,81.94
2023-02-16T07:44:40.590Z,81.94
2023-02-16T07:45:40.629Z,81.94
2023-02-16T07:46:40.589Z,81.84
2023-02-16T07:47:40.557Z,81.63
2023-02-16T07:48:40.537Z,81.70
2023-02-16T07:49:40.530Z,81.59
2023-02-16T07:50:40.517Z,81.49
2023-02-16T07:51:40.528Z,81.49
2023-02-16T07:52:40.546Z,81.38
2023-02-16T07:53:40.485Z,81.28
2023-02-16T07:54:40.486Z,81.18
2023-02-16T07:55:40.488Z,80.76
2023-02-16T07:56:40.456Z,80.66
2023-02-16T07:57:40.504Z,80.56
2023-02-16T07:58:40.434Z,80.66
2023-02-16T07:59:40.464Z,80.66
2023-02-16T08:00:40.450Z,80.66
2023-02-16T08:01:45.596Z,80.52
2023-02-16T08:02:40.542Z,80.42
2023-02-16T08:03:40.482Z,80.21
2023-02-16T08:04:40.372Z,80.21
2023-02-16T08:05:40.353Z,80.00
2023-02-16T08:06:40.353Z,79.69
2023-02-16T08:07:40.333Z,79.38
2023-02-16T08:08:40.336Z,79.14
2023-02-16T08:09:43.883Z,78.73
2023-02-16T08:10:40.342Z,78.73
2023-02-16T08:11:40.307Z,78.73
2023-02-16T08:12:40.291Z,78.63
2023-02-16T08:13:40.325Z,78.73
2023-02-16T08:14:40.273Z,78.73
2023-02-16T08:15:40.252Z,78.52
2023-02-16T08:16:40.296Z,78.42
2023-02-16T08:17:40.240Z,78.18
2023-02-16T08:18:40.231Z,78.18
2023-02-16T08:19:40.253Z,78.18
2023-02-16T08:21:01.553Z,78.18
2023-02-16T08:21:41.200Z,78.18
2023-02-16T08:22:40.243Z,78.28
2023-02-16T08:23:40.194Z,78.28
2023-02-16T08:24:40.167Z,78.49
2023-02-16T08:25:40.293Z,78.38
2023-02-16T08:26:40.144Z,78.38
2023-02-16T08:27:40.128Z,78.49
2023-02-16T08:28:40.179Z,78.38
2023-02-16T08:29:40.226Z,78.14
2023-02-16T08:30:40.100Z,78.14
2023-02-16T08:31:40.221Z,78.24
2023-02-16T08:32:40.105Z,78.14
2023-02-16T08:33:40.068Z,77.94
2023-02-16T08:34:42.947Z,77.83
2023-02-16T08:35:40.038Z,77.62
2023-02-16T08:36:40.096Z,77.48
2023-02-16T08:37:40.058Z,77.28
2023-02-16T08:38:40.024Z,77.08
2023-02-16T08:39:40.010Z,77.18
2023-02-16T08:40:40.034Z,77.08
2023-02-16T08:41:39.978Z,77.08
2023-02-16T08:42:39.980Z,76.56
2023-02-16T08:43:39.977Z,76.35
2023-02-16T08:44:40.001Z,76.32
2023-02-16T08:45:39.973Z,76.73
2023-02-16T08:46:40.027Z,75.70
2023-02-16T08:47:39.916Z,75.60
2023-02-16T08:48:39.915Z,75.70
2023-02-16T08:49:39.903Z,75.81
2023-02-16T08:50:39.893Z,75.70
2023-02-16T08:51:39.873Z,75.70
2023-02-16T08:52:39.953Z,75.81
2023-02-16T08:53:39.893Z,75.81
2023-02-16T08:54:39.893Z,75.87
2023-02-16T08:55:39.852Z,75.77
2023-02-16T08:56:39.842Z,75.56
2023-02-16T08:57:39.814Z,75.46
2023-02-16T08:58:40.019Z,75.25
2023-02-16T08:59:39.782Z,75.25
2023-02-16T09:00:39.770Z,75.25
2023-02-16T09:01:39.849Z,75.15
2023-02-16T09:02:42.257Z,75.05
2023-02-16T09:03:39.740Z,75.15
2023-02-16T09:04:39.732Z,75.05
2023-02-16T09:05:39.710Z,75.05
2023-02-16T09:06:39.887Z,75.12
2023-02-16T09:07:39.698Z,75.22
2023-02-16T09:08:39.714Z,75.22
2023-02-16T09:09:41.727Z,75.01
2023-02-16T09:10:39.772Z,74.91
2023-02-16T09:11:39.731Z,74.80
2023-02-16T09:12:39.713Z,74.80
2023-02-16T09:13:39.677Z,74.80
2023-02-16T09:14:39.623Z,74.60
2023-02-16T09:15:39.627Z,74.50
2023-02-16T09:16:39.824Z,74.36
2023-02-16T09:17:39.585Z,74.26
2023-02-16T09:18:39.657Z,74.15
2023-02-16T09:19:39.568Z,73.95
2023-02-16T09:20:39.578Z,73.85
2023-02-16T09:21:39.549Z,73.95
2023-02-16T09:22:39.576Z,74.12
2023-02-16T09:23:39.869Z,73.81
2023-02-16T09:24:39.519Z,73.71
2023-02-16T09:25:39.563Z,73.81
2023-02-16T09:26:39.499Z,73.71
2023-02-16T09:27:39.501Z,73.71
2023-02-16T09:28:39.500Z,73.57
2023-02-16T09:29:39.458Z,73.27
2023-02-16T09:30:39.646Z,73.06
2023-02-16T09:31:39.629Z,72.96
2023-02-16T09:32:39.429Z,72.92
2023-02-16T09:33:39.415Z,72.82
2023-02-16T09:34:39.407Z,72.61
2023-02-16T09:35:39.410Z,72.41
2023-02-16T09:36:39.391Z,72.20
2023-02-16T09:37:39.407Z,72.10
2023-02-16T09:38:39.368Z,72.00
2023-02-16T09:39:39.356Z,71.97
2023-02-16T09:40:39.348Z,72.06
2023-02-16T09:41:39.395Z,72.06
2023-02-16T09:42:39.316Z,71.97
2023-02-16T09:43:39.315Z,71.76
2023-02-16T09:44:39.366Z,71.86
2023-02-16T09:45:39.295Z,71.86
2023-02-16T09:46:39.408Z,71.62
2023-02-16T09:47:39.274Z,71.42
2023-02-16T09:48:39.274Z,71.62
2023-02-16T09:49:39.311Z,71.62
2023-02-16T09:50:53.397Z,71.31
2023-02-16T09:51:40.233Z,70.97
2023-02-16T09:52:39.226Z,70.77
2023-02-16T09:53:39.237Z,71.08
2023-02-16T09:54:39.223Z,70.77
2023-02-16T09:55:39.190Z,70.77
2023-02-16T09:56:39.196Z,71.08
2023-02-16T09:57:39.166Z,70.77
2023-02-16T09:58:39.186Z,70.46
2023-02-16T09:59:39.505Z,70.22
2023-02-16T10:00:39.276Z,70.02
2023-02-16T10:01:39.200Z,70.12
2023-02-16T10:02:39.152Z,70.12
2023-02-16T10:03:39.106Z,70.02
2023-02-16T10:04:39.083Z,70.02
2023-02-16T10:05:39.177Z,69.92
2023-02-16T10:06:39.068Z,70.02
2023-02-16T10:07:39.057Z,69.81
2023-02-16T10:08:39.088Z,70.02
2023-02-16T10:09:39.037Z,70.12
2023-02-16T10:10:40.228Z,70.12
2023-02-16T10:11:39.013Z,69.92
2023-02-16T10:12:39.018Z,70.12
2023-02-16T10:13:38.998Z,70.02
2023-02-16T10:14:39.026Z,70.12
2023-02-16T10:15:39.070Z,70.22
2023-02-16T10:16:38.969Z,70.02
2023-02-16T10:17:38.958Z,70.12
2023-02-16T10:18:38.935Z,70.12
2023-02-16T10:19:38.936Z,70.22
2023-02-16T10:20:38.936Z,70.32
2023-02-16T10:21:38.947Z,70.43
2023-02-16T10:22:38.894Z,70.64
2023-02-16T10:23:38.895Z,70.73
2023-02-16T10:24:38.955Z,70.73
2023-02-16T10:25:38.877Z,70.64
2023-02-16T10:26:38.850Z,70.64
2023-02-16T10:27:38.928Z,70.64
2023-02-16T10:28:38.832Z,70.64
2023-02-16T10:29:38.825Z,70.84
2023-02-16T10:30:38.809Z,70.73
2023-02-16T10:31:39.029Z,70.84
2023-02-16T10:32:43.766Z,70.84
2023-02-16T10:33:39.837Z,70.94
2023-02-16T10:34:38.770Z,70.94
2023-02-16T10:35:38.769Z,71.04
2023-02-16T10:36:38.754Z,71.15
2023-02-16T10:37:38.745Z,71.25
2023-02-16T10:38:38.729Z,71.18
2023-02-16T10:39:38.746Z,71.28
2023-02-16T10:40:38.706Z,71.28
2023-02-16T10:41:38.728Z,71.39
2023-02-16T10:42:38.716Z,71.39
2023-02-16T10:43:38.678Z,71.08
2023-02-16T10:44:38.668Z,71.18
2023-02-16T10:45:38.658Z,71.39
2023-02-16T10:46:38.711Z,71.59
2023-02-16T10:47:38.641Z,71.39
2023-02-16T10:48:38.625Z,71.28
2023-02-16T10:49:38.619Z,71.39
2023-02-16T10:50:38.606Z,71.28
2023-02-16T10:51:38.662Z,71.39
2023-02-16T10:52:38.609Z,71.39
2023-02-16T10:53:38.617Z,71.48
2023-02-16T10:54:38.558Z,71.59
2023-02-16T10:55:38.557Z,71.39
2023-02-16T10:56:38.539Z,71.48
2023-02-16T10:57:38.562Z,71.56
2023-02-16T10:58:38.540Z,71.35
2023-02-16T10:59:38.620Z,71.45
2023-02-16T11:00:38.499Z,71.66
2023-02-16T11:01:38.577Z,71.76
2023-02-16T11:02:38.474Z,71.56
2023-02-16T11:03:38.466Z,71.66
2023-02-16T11:04:38.487Z,71.76
2023-02-16T11:05:38.470Z,71.66
2023-02-16T11:06:38.430Z,71.66
2023-02-16T11:07:38.427Z,71.76
2023-02-16T11:08:38.408Z,71.76
2023-02-16T11:09:38.452Z,71.86
2023-02-16T11:10:38.473Z,71.97
2023-02-16T11:11:38.388Z,71.97
2023-02-16T11:12:38.409Z,71.97
2023-02-16T11:13:38.365Z,72.07
2023-02-16T11:14:38.343Z,72.17
2023-02-16T11:15:38.340Z,72.14
2023-02-16T11:16:38.364Z,72.03
2023-02-16T11:17:38.322Z,71.93
2023-02-16T11:18:38.313Z,72.03
2023-02-16T11:19:38.306Z,72.24
2023-02-16T11:20:38.303Z,72.14
2023-02-16T11:21:38.345Z,72.03
2023-02-16T11:22:38.265Z,72.14
2023-02-16T11:23:38.254Z,72.24
2023-02-16T11:24:38.302Z,72.03
2023-02-16T11:25:38.283Z,72.14
2023-02-16T11:26:38.224Z,72.03
2023-02-16T11:27:38.222Z,71.93
2023-02-16T11:28:38.220Z,72.03
2023-02-16T11:29:38.194Z,71.93
2023-02-16T11:30:38.193Z,72.14
2023-02-16T11:31:38.300Z,72.34
2023-02-16T11:32:38.154Z,72.34
2023-02-16T11:33:38.151Z,72.34
2023-02-16T11:34:38.144Z,72.44
2023-02-16T11:35:38.137Z,72.41
2023-02-16T11:36:38.138Z,72.52
2023-02-16T11:37:38.199Z,72.61
2023-02-16T11:38:38.127Z,72.52
2023-02-16T11:39:38.092Z,72.31
2023-02-16T11:40:38.089Z,72.41
2023-02-16T11:41:38.069Z,72.41
2023-02-16T11:42:40.228Z,72.52
2023-02-16T11:43:38.047Z,72.61
2023-02-16T11:44:38.026Z,72.72
2023-02-16T11:45:38.010Z,72.72
2023-02-16T11:46:38.068Z,73.03
2023-02-16T11:47:37.998Z,73.23
2023-02-16T11:48:37.987Z,73.44
2023-02-16T11:49:37.974Z,73.54
2023-02-16T11:50:38.032Z,73.64
2023-02-16T11:51:37.942Z,74.05
2023-02-16T11:52:37.988Z,74.56
2023-02-16T11:53:37.931Z,74.90
2023-02-16T11:54:37.921Z,75.21
2023-02-16T11:55:37.909Z,75.93
2023-02-16T11:56:37.930Z,76.85
2023-02-16T11:57:37.892Z,77.16
2023-02-16T11:58:37.877Z,77.57
2023-02-16T11:59:37.913Z,77.77
2023-02-16T12:00:37.888Z,77.81
2023-02-16T12:01:38.085Z,78.32
2023-02-16T12:02:37.830Z,78.22
2023-02-16T12:03:37.857Z,78.94
2023-02-16T12:04:37.811Z,79.14
2023-02-16T12:05:37.862Z,79.14
2023-02-16T12:06:37.852Z,79.66
2023-02-16T12:07:37.781Z,79.75
2023-02-16T12:08:37.751Z,79.66
2023-02-16T12:09:37.752Z,79.18
2023-02-16T12:10:37.749Z,79.90
2023-02-16T12:11:37.765Z,80.58
2023-02-16T12:12:37.782Z,80.82
2023-02-16T12:13:37.713Z,80.72
2023-02-16T12:14:37.741Z,80.72
2023-02-16T12:15:37.689Z,80.72
2023-02-16T12:16:37.735Z,81.02
2023-02-16T12:17:37.740Z,81.43
2023-02-16T12:18:37.653Z,81.60
2023-02-16T12:19:37.650Z,82.12
2023-02-16T12:20:37.692Z,82.36
2023-02-16T12:21:37.704Z,82.36
2023-02-16T12:22:37.620Z,82.46
2023-02-16T12:23:37.607Z,82.36
2023-02-16T12:24:37.604Z,82.46
2023-02-16T12:25:37.585Z,82.46
2023-02-16T12:26:37.612Z,82.46
2023-02-16T12:27:37.579Z,82.67
2023-02-16T12:28:37.549Z,82.56
2023-02-16T12:29:37.540Z,82.56
2023-02-16T12:30:37.585Z,82.26
2023-02-16T12:31:37.542Z,82.05
2023-02-16T12:32:37.598Z,81.95
2023-02-16T12:33:37.546Z,82.15
2023-02-16T12:34:37.478Z,82.36
2023-02-16T12:35:37.470Z,81.95
2023-02-16T12:36:37.477Z,81.43
2023-02-16T12:37:37.454Z,81.85
2023-02-16T12:38:37.484Z,81.74
2023-02-16T12:39:37.433Z,81.64
2023-02-16T12:40:37.418Z,81.64
2023-02-16T12:41:37.425Z,81.54
2023-02-16T12:42:37.396Z,81.54
2023-02-16T12:43:37.386Z,81.34
2023-02-16T12:44:37.423Z,81.13
2023-02-16T12:45:37.406Z,81.02
2023-02-16T12:46:37.345Z,81.02
2023-02-16T12:47:37.367Z,81.02
2023-02-16T12:48:37.378Z,81.23
2023-02-16T12:49:37.323Z,81.43
2023-02-16T12:50:37.355Z,81.34
2023-02-16T12:51:37.305Z,81.54
2023-02-16T12:52:37.303Z,81.54